^^
Saratoga-Weather Station Historical Data
Daily Summary for April 23, 2021 Units:  Both    English   Metric
Daily Weekly Monthly Yearly Custom
  High: Low: Average:
Temperature: 67.3 °F /  19.6 °C 43 °F /  6.1 °C 54 °F /  12.2 °C
Dew Point: 50.9 °F /  10.5 °C 41.2 °F /  5.1 °C 46.9 °F /  8.3 °C
Humidity: 95% 54% 79%
Wind Speed: 6.9mph /  11.1km/h - 0.7mph /  1.1km/h
Wind Gust: 11mph /  17.7km/h - -
Wind- - SSE
Pressure: 30.5 in /  1032.5 hPa 30.3 in /  1027.1 hPa -
Precipitation: 0 in /  0.0 mm    
Historical Graphs
 
 
Tabular Data for April 23, 2021
Time Temperature Dew Point Pressure Wind Wind Speed Wind Gust Humidity Rainfall Rate (Hourly) solar
00:04 46.8 °F /  8.2 °C 44.2 °F /  6.8 °C 30.3in /  1027.1hPa Calm     91% 0in /  0.0mm 0 W/m2
00:09 46.8 °F /  8.2 °C 44.2 °F /  6.8 °C 30.3in /  1027.1hPa Calm     91% 0in /  0.0mm 0 W/m2
00:14 46.8 °F /  8.2 °C 44.2 °F /  6.8 °C 30.3in /  1027.1hPa Calm     91% 0in /  0.0mm 0 W/m2
00:19 46.8 °F /  8.2 °C 44.2 °F /  6.8 °C 30.3in /  1027.1hPa Calm     91% 0in /  0.0mm 0 W/m2
00:24 46.8 °F /  8.2 °C 44.2 °F /  6.8 °C 30.3in /  1027.4hPa Calm     91% 0in /  0.0mm 0 W/m2
00:29 46.8 °F /  8.2 °C 44.2 °F /  6.8 °C 30.3in /  1027.4hPa Calm     91% 0in /  0.0mm 0 W/m2
00:34 46.8 °F /  8.2 °C 44.2 °F /  6.8 °C 30.3in /  1027.4hPa Calm     91% 0in /  0.0mm 0 W/m2
00:40 46.6 °F /  8.1 °C 44.1 °F /  6.7 °C 30.3in /  1027.4hPa Calm     91% 0in /  0.0mm 0 W/m2
00:59 46.6 °F /  8.1 °C 44.1 °F /  6.7 °C 30.4in /  1027.8hPa Calm     91% 0in /  0.0mm 0 W/m2
01:04 46.6 °F /  8.1 °C 44.1 °F /  6.7 °C 30.4in /  1027.8hPa Calm     91% 0in /  0.0mm 0 W/m2
01:09 46.6 °F /  8.1 °C 44.1 °F /  6.7 °C 30.4in /  1028.1hPa Calm     91% 0in /  0.0mm 0 W/m2
01:14 46.6 °F /  8.1 °C 44.1 °F /  6.7 °C 30.4in /  1028.1hPa Calm     91% 0in /  0.0mm 0 W/m2
01:19 46.4 °F /  8 °C 43.9 °F /  6.6 °C 30.4in /  1028.1hPa Calm     91% 0in /  0.0mm 0 W/m2
01:24 46.2 °F /  7.9 °C 43.7 °F /  6.5 °C 30.4in /  1028.1hPa Calm     91% 0in /  0.0mm 0 W/m2
01:29 46.2 °F /  7.9 °C 43.7 °F /  6.5 °C 30.4in /  1028.1hPa Calm     91% 0in /  0.0mm 0 W/m2
01:46 45.9 °F /  7.7 °C 43.3 °F /  6.3 °C 30.4in /  1028.5hPa Calm     91% 0in /  0.0mm 0 W/m2
01:51 45.9 °F /  7.7 °C 43.3 °F /  6.3 °C 30.4in /  1028.5hPa Calm     91% 0in /  0.0mm 0 W/m2
01:56 46 °F /  7.8 °C 43.9 °F /  6.6 °C 30.4in /  1028.1hPa Calm   1mph /  1.6km/h 92% 0in /  0.0mm 0 W/m2
02:01 46.2 °F /  7.9 °C 44.1 °F /  6.7 °C 30.4in /  1028.1hPa Calm   1mph /  1.6km/h 92% 0in /  0.0mm 0 W/m2
02:06 46.4 °F /  8 °C 44.2 °F /  6.8 °C 30.4in /  1028.1hPa Calm     92% 0in /  0.0mm 0 W/m2
02:11 46.6 °F /  8.1 °C 44.4 °F /  6.9 °C 30.4in /  1028.5hPa Calm     92% 0in /  0.0mm 0 W/m2
02:16 46.6 °F /  8.1 °C 44.1 °F /  6.7 °C 30.4in /  1028.5hPa Calm     91% 0in /  0.0mm 0 W/m2
02:21 46.6 °F /  8.1 °C 44.1 °F /  6.7 °C 30.4in /  1028.5hPa Calm     91% 0in /  0.0mm 0 W/m2
02:26 46.6 °F /  8.1 °C 44.1 °F /  6.7 °C 30.4in /  1028.5hPa Calm     91% 0in /  0.0mm 0 W/m2
02:47 46.6 °F /  8.1 °C 44.1 °F /  6.7 °C 30.4in /  1028.5hPa Calm     91% 0in /  0.0mm 0 W/m2
02:52 46.6 °F /  8.1 °C 44.1 °F /  6.7 °C 30.4in /  1028.5hPa Calm     91% 0in /  0.0mm 0 W/m2
02:57 46.6 °F /  8.1 °C 44.1 °F /  6.7 °C 30.4in /  1028.5hPa Calm     91% 0in /  0.0mm 0 W/m2
03:02 46.6 °F /  8.1 °C 44.1 °F /  6.7 °C 30.4in /  1028.5hPa Calm     91% 0in /  0.0mm 0 W/m2
03:07 46.4 °F /  8 °C 43.9 °F /  6.6 °C 30.4in /  1028.5hPa Calm     91% 0in /  0.0mm 0 W/m2
03:12 46.4 °F /  8 °C 43.9 °F /  6.6 °C 30.4in /  1028.5hPa Calm     91% 0in /  0.0mm 0 W/m2
03:17 46.4 °F /  8 °C 43.9 °F /  6.6 °C 30.4in /  1028.5hPa Calm   1mph /  1.6km/h 91% 0in /  0.0mm 0 W/m2
03:22 46.6 °F /  8.1 °C 44.1 °F /  6.7 °C 30.4in /  1028.8hPa Calm     91% 0in /  0.0mm 0 W/m2
03:27 46.4 °F /  8 °C 43.9 °F /  6.6 °C 30.4in /  1028.8hPa Calm     91% 0in /  0.0mm 0 W/m2
03:32 46.4 °F /  8 °C 43.9 °F /  6.6 °C 30.4in /  1028.8hPa Calm     91% 0in /  0.0mm 0 W/m2
03:37 46.4 °F /  8 °C 43.9 °F /  6.6 °C 30.4in /  1028.8hPa Calm   1mph /  1.6km/h 91% 0in /  0.0mm 0 W/m2
03:42 46.6 °F /  8.1 °C 44.1 °F /  6.7 °C 30.4in /  1028.8hPa Calm     91% 0in /  0.0mm 0 W/m2
03:47 46.6 °F /  8.1 °C 44.1 °F /  6.7 °C 30.4in /  1029.1hPa Calm     91% 0in /  0.0mm 0 W/m2
03:52 46.4 °F /  8 °C 43.9 °F /  6.6 °C 30.4in /  1029.1hPa Calm     91% 0in /  0.0mm 0 W/m2
03:57 46.2 °F /  7.9 °C 43.7 °F /  6.5 °C 30.4in /  1029.1hPa Calm     91% 0in /  0.0mm 0 W/m2
04:02 46.2 °F /  7.9 °C 43.7 °F /  6.5 °C 30.4in /  1029.1hPa Calm     91% 0in /  0.0mm 0 W/m2
04:07 46.2 °F /  7.9 °C 43.7 °F /  6.5 °C 30.4in /  1029.1hPa Calm     91% 0in /  0.0mm 0 W/m2
04:12 46.2 °F /  7.9 °C 43.7 °F /  6.5 °C 30.4in /  1029.1hPa Calm     91% 0in /  0.0mm 0 W/m2
04:17 46.2 °F /  7.9 °C 43.7 °F /  6.5 °C 30.4in /  1029.1hPa Calm     91% 0in /  0.0mm 0 W/m2
04:22 46.2 °F /  7.9 °C 43.7 °F /  6.5 °C 30.4in /  1029.5hPa Calm     91% 0in /  0.0mm 0 W/m2
04:27 46.2 °F /  7.9 °C 43.7 °F /  6.5 °C 30.4in /  1029.5hPa Calm     91% 0in /  0.0mm 0 W/m2
04:32 46.2 °F /  7.9 °C 43.7 °F /  6.5 °C 30.4in /  1029.5hPa Calm     91% 0in /  0.0mm 0 W/m2
04:37 46 °F /  7.8 °C 43.5 °F /  6.4 °C 30.4in /  1029.5hPa Calm     91% 0in /  0.0mm 0 W/m2
04:42 46 °F /  7.8 °C 43.5 °F /  6.4 °C 30.4in /  1029.5hPa Calm     91% 0in /  0.0mm 0 W/m2
04:47 46 °F /  7.8 °C 43.5 °F /  6.4 °C 30.4in /  1029.1hPa Calm     91% 0in /  0.0mm 0 W/m2
04:52 45.9 °F /  7.7 °C 43.3 °F /  6.3 °C 30.4in /  1029.5hPa Calm     91% 0in /  0.0mm 0 W/m2
04:57 45.9 °F /  7.7 °C 43.3 °F /  6.3 °C 30.4in /  1029.5hPa Calm     91% 0in /  0.0mm 0 W/m2
05:02 45.7 °F /  7.6 °C 43 °F /  6.1 °C 30.4in /  1029.5hPa Calm     90% 0in /  0.0mm 0 W/m2
05:07 45.5 °F /  7.5 °C 43 °F /  6.1 °C 30.4in /  1029.5hPa Calm     91% 0in /  0.0mm 0 W/m2
05:26 45 °F /  7.2 °C 42.4 °F /  5.8 °C 30.4in /  1029.5hPa Calm     91% 0in /  0.0mm 0 W/m2
05:31 44.8 °F /  7.1 °C 42.3 °F /  5.7 °C 30.4in /  1029.5hPa Calm     91% 0in /  0.0mm 0 W/m2
05:36 44.8 °F /  7.1 °C 42.6 °F /  5.9 °C 30.4in /  1029.8hPa Calm     92% 0in /  0.0mm 0 W/m2
05:41 44.8 °F /  7.1 °C 42.6 °F /  5.9 °C 30.4in /  1029.8hPa Calm     92% 0in /  0.0mm 0 W/m2
05:46 44.8 °F /  7.1 °C 42.6 °F /  5.9 °C 30.4in /  1029.8hPa Calm     92% 0in /  0.0mm 0 W/m2
05:51 44.8 °F /  7.1 °C 42.6 °F /  5.9 °C 30.4in /  1029.8hPa Calm     92% 0in /  0.0mm 0 W/m2
05:56 44.4 °F /  6.9 °C 42.3 °F /  5.7 °C 30.4in /  1029.8hPa Calm     92% 0in /  0.0mm 0 W/m2
06:01 44.4 °F /  6.9 °C 42.3 °F /  5.7 °C 30.4in /  1029.8hPa Calm     92% 0in /  0.0mm 0 W/m2
06:06 44.2 °F /  6.8 °C 42.1 °F /  5.6 °C 30.4in /  1030.1hPa Calm     92% 0in /  0.0mm 0 W/m2
06:11 44.1 °F /  6.7 °C 41.9 °F /  5.5 °C 30.4in /  1030.1hPa Calm     92% 0in /  0.0mm 0 W/m2
06:16 44.1 °F /  6.7 °C 41.9 °F /  5.5 °C 30.4in /  1030.1hPa Calm     92% 0in /  0.0mm 0 W/m2
06:21 43.9 °F /  6.6 °C 41.7 °F /  5.4 °C 30.4in /  1030.1hPa Calm     92% 0in /  0.0mm 0 W/m2
06:26 43.7 °F /  6.5 °C 41.5 °F /  5.3 °C 30.4in /  1030.1hPa Calm     92% 0in /  0.0mm 0 W/m2
06:31 43.5 °F /  6.4 °C 41.7 °F /  5.4 °C 30.4in /  1030.1hPa Calm     93% 0in /  0.0mm 0 W/m2
06:36 43.5 °F /  6.4 °C 41.7 °F /  5.4 °C 30.4in /  1030.1hPa Calm     93% 0in /  0.0mm 0 W/m2
06:41 43.5 °F /  6.4 °C 41.7 °F /  5.4 °C 30.4in /  1030.1hPa Calm     93% 0in /  0.0mm 0 W/m2
06:46 43.5 °F /  6.4 °C 41.7 °F /  5.4 °C 30.4in /  1030.1hPa Calm     93% 0in /  0.0mm 0 W/m2
06:51 43.3 °F /  6.3 °C 41.5 °F /  5.3 °C 30.4in /  1030.1hPa Calm     93% 0in /  0.0mm 0 W/m2
06:56 43.3 °F /  6.3 °C 41.5 °F /  5.3 °C 30.4in /  1030.1hPa Calm     93% 0in /  0.0mm 0 W/m2
07:01 43.2 °F /  6.2 °C 41.4 °F /  5.2 °C 30.4in /  1030.1hPa Calm     93% 0in /  0.0mm 0 W/m2
07:06 43.2 °F /  6.2 °C 41.4 °F /  5.2 °C 30.4in /  1030.5hPa Calm     93% 0in /  0.0mm 0 W/m2
07:11 43 °F /  6.1 °C 41.2 °F /  5.1 °C 30.4in /  1030.5hPa Calm     93% 0in /  0.0mm 0 W/m2
07:16 43 °F /  6.1 °C 41.4 °F /  5.2 °C 30.4in /  1030.5hPa Calm     94% 0in /  0.0mm 0 W/m2
07:21 43 °F /  6.1 °C 41.4 °F /  5.2 °C 30.4in /  1030.5hPa Calm     94% 0in /  0.0mm 0 W/m2
07:26 43.2 °F /  6.2 °C 41.5 °F /  5.3 °C 30.4in /  1030.5hPa Calm     94% 0in /  0.0mm 0 W/m2
07:31 43.2 °F /  6.2 °C 41.5 °F /  5.3 °C 30.4in /  1030.5hPa Calm     94% 0in /  0.0mm 0 W/m2
07:36 43.2 °F /  6.2 °C 41.5 °F /  5.3 °C 30.4in /  1030.5hPa Calm     94% 0in /  0.0mm 5 W/m2
07:41 43.2 °F /  6.2 °C 41.5 °F /  5.3 °C 30.4in /  1030.5hPa Calm     94% 0in /  0.0mm 7 W/m2
07:46 43.2 °F /  6.2 °C 41.5 °F /  5.3 °C 30.4in /  1030.5hPa Calm     94% 0in /  0.0mm 11 W/m2
07:51 43.2 °F /  6.2 °C 41.9 °F /  5.5 °C 30.4in /  1030.8hPa ENE 2mph /  3.2km/h 2mph /  3.2km/h 95% 0in /  0.0mm 16 W/m2
07:56 43.9 °F /  6.6 °C 42.6 °F /  5.9 °C 30.4in /  1030.8hPa ENE 2mph /  3.2km/h 2mph /  3.2km/h 95% 0in /  0.0mm 19 W/m2
08:01 44.1 °F /  6.7 °C 42.8 °F /  6 °C 30.4in /  1030.8hPa Calm   1mph /  1.6km/h 95% 0in /  0.0mm 25 W/m2
08:06 44.1 °F /  6.7 °C 42.4 °F /  5.8 °C 30.4in /  1030.8hPa Calm     94% 0in /  0.0mm 25 W/m2
08:11 44.1 °F /  6.7 °C 42.4 °F /  5.8 °C 30.4in /  1030.8hPa Calm     94% 0in /  0.0mm 25 W/m2
08:16 44.1 °F /  6.7 °C 42.4 °F /  5.8 °C 30.4in /  1030.8hPa Calm     94% 0in /  0.0mm 26 W/m2
08:21 44.1 °F /  6.7 °C 42.4 °F /  5.8 °C 30.4in /  1030.8hPa Calm     94% 0in /  0.0mm 33 W/m2
08:26 44.2 °F /  6.8 °C 42.6 °F /  5.9 °C 30.5in /  1031.2hPa Calm     94% 0in /  0.0mm 44 W/m2
08:31 44.2 °F /  6.8 °C 43 °F /  6.1 °C 30.5in /  1031.2hPa Calm     95% 0in /  0.0mm 56 W/m2
08:36 44.4 °F /  6.9 °C 43.2 °F /  6.2 °C 30.5in /  1031.2hPa Calm     95% 0in /  0.0mm 53 W/m2
08:41 44.8 °F /  7.1 °C 43.5 °F /  6.4 °C 30.5in /  1031.2hPa Calm   1mph /  1.6km/h 95% 0in /  0.0mm 51 W/m2
08:48 45.1 °F /  7.3 °C 43.9 °F /  6.6 °C 30.5in /  1031.2hPa Calm     95% 0in /  0.0mm 56 W/m2
08:53 45.7 °F /  7.6 °C 44.4 °F /  6.9 °C 30.5in /  1031.5hPa Calm     95% 0in /  0.0mm 63 W/m2
08:58 45.9 °F /  7.7 °C 44.2 °F /  6.8 °C 30.5in /  1031.5hPa Calm     94% 0in /  0.0mm 77 W/m2
09:03 46.2 °F /  7.9 °C 44.8 °F /  7.1 °C 30.5in /  1031.5hPa Calm     95% 0in /  0.0mm 76 W/m2
09:08 46.8 °F /  8.2 °C 45.1 °F /  7.3 °C 30.5in /  1031.8hPa Calm     94% 0in /  0.0mm 91 W/m2
09:13 47.1 °F /  8.4 °C 45.5 °F /  7.5 °C 30.5in /  1031.8hPa Calm     94% 0in /  0.0mm 100 W/m2
09:18 47.7 °F /  8.7 °C 45.7 °F /  7.6 °C 30.5in /  1031.8hPa Calm     93% 0in /  0.0mm 93 W/m2
09:23 48 °F /  8.9 °C 46 °F /  7.8 °C 30.5in /  1031.8hPa Calm     93% 0in /  0.0mm 104 W/m2
09:28 48.4 °F /  9.1 °C 46.2 °F /  7.9 °C 30.5in /  1031.8hPa Calm     92% 0in /  0.0mm 151 W/m2
09:33 48.7 °F /  9.3 °C 46.6 °F /  8.1 °C 30.5in /  1031.8hPa Calm     92% 0in /  0.0mm 125 W/m2
09:38 49.1 °F /  9.5 °C 46.6 °F /  8.1 °C 30.5in /  1031.8hPa Calm     91% 0in /  0.0mm 146 W/m2
09:43 49.5 °F /  9.7 °C 46.6 °F /  8.1 °C 30.5in /  1031.8hPa Calm     90% 0in /  0.0mm 169 W/m2
09:48 49.8 °F /  9.9 °C 46.8 °F /  8.2 °C 30.5in /  1031.8hPa Calm     89% 0in /  0.0mm 114 W/m2
09:53 50.2 °F /  10.1 °C 46.8 °F /  8.2 °C 30.5in /  1031.8hPa Calm     88% 0in /  0.0mm 155 W/m2
09:59 50.7 °F /  10.4 °C 46.9 °F /  8.3 °C 30.5in /  1031.8hPa Calm     87% 0in /  0.0mm 158 W/m2
10:04 51.1 °F /  10.6 °C 47.1 °F /  8.4 °C 30.5in /  1031.8hPa Calm     86% 0in /  0.0mm 111 W/m2
10:09 51.4 °F /  10.8 °C 47.1 °F /  8.4 °C 30.5in /  1032.2hPa Calm     85% 0in /  0.0mm 253 W/m2
10:14 51.8 °F /  11 °C 47.5 °F /  8.6 °C 30.5in /  1032.2hPa Calm     85% 0in /  0.0mm 269 W/m2
10:19 52.3 °F /  11.3 °C 48 °F /  8.9 °C 30.5in /  1032.2hPa Calm     85% 0in /  0.0mm 269 W/m2
10:24 52.9 °F /  11.6 °C 47.8 °F /  8.8 °C 30.5in /  1032.2hPa Calm     83% 0in /  0.0mm 279 W/m2
10:29 53.2 °F /  11.8 °C 48.2 °F /  9 °C 30.5in /  1032.2hPa Calm     83% 0in /  0.0mm 294 W/m2
10:34 54.3 °F /  12.4 °C 48.9 °F /  9.4 °C 30.5in /  1032.2hPa East 2.9mph /  4.7km/h 4mph /  6.4km/h 82% 0in /  0.0mm 288 W/m2
10:39 55.6 °F /  13.1 °C 48.9 °F /  9.4 °C 30.5in /  1032.2hPa East 2.9mph /  4.7km/h 3mph /  4.8km/h 78% 0in /  0.0mm 285 W/m2
10:44 56.7 °F /  13.7 °C 49.1 °F /  9.5 °C 30.5in /  1032.2hPa ENE 2mph /  3.2km/h 3mph /  4.8km/h 76% 0in /  0.0mm 276 W/m2
10:49 57.6 °F /  14.2 °C 49.3 °F /  9.6 °C 30.5in /  1032.2hPa East 0.9mph /  1.4km/h 2mph /  3.2km/h 74% 0in /  0.0mm 271 W/m2
10:54 58.3 °F /  14.6 °C 49.6 °F /  9.8 °C 30.5in /  1032.2hPa Calm     73% 0in /  0.0mm 250 W/m2
10:59 58.6 °F /  14.8 °C 49.3 °F /  9.6 °C 30.5in /  1032.2hPa Calm   1mph /  1.6km/h 71% 0in /  0.0mm 313 W/m2
11:04 59.4 °F /  15.2 °C 49.6 °F /  9.8 °C 30.5in /  1032.2hPa Calm   3mph /  4.8km/h 70% 0in /  0.0mm 352 W/m2
11:09 60.1 °F /  15.6 °C 49.8 °F /  9.9 °C 30.5in /  1032.2hPa NE 2mph /  3.2km/h 3mph /  4.8km/h 69% 0in /  0.0mm 360 W/m2
11:14 60.4 °F /  15.8 °C 49.8 °F /  9.9 °C 30.5in /  1032.2hPa ENE 2mph /  3.2km/h 3mph /  4.8km/h 68% 0in /  0.0mm 369 W/m2
11:19 61.2 °F /  16.2 °C 49.6 °F /  9.8 °C 30.5in /  1032.2hPa SE 2mph /  3.2km/h 7mph /  11.3km/h 66% 0in /  0.0mm 359 W/m2
11:24 61.5 °F /  16.4 °C 49.6 °F /  9.8 °C 30.5in /  1032.2hPa WNW 0.9mph /  1.4km/h 4mph /  6.4km/h 65% 0in /  0.0mm 287 W/m2
11:29 61.9 °F /  16.6 °C 50 °F /  10 °C 30.5in /  1032.2hPa NE 2mph /  3.2km/h 4mph /  6.4km/h 65% 0in /  0.0mm 248 W/m2
11:34 62.1 °F /  16.7 °C 49.8 °F /  9.9 °C 30.5in /  1032.2hPa NW 2.9mph /  4.7km/h 4mph /  6.4km/h 64% 0in /  0.0mm 225 W/m2
11:39 62.2 °F /  16.8 °C 50 °F /  10 °C 30.5in /  1032.5hPa West 2.9mph /  4.7km/h 9mph /  14.5km/h 64% 0in /  0.0mm 178 W/m2
11:44 62.2 °F /  16.8 °C 50 °F /  10 °C 30.5in /  1032.2hPa ENE 2mph /  3.2km/h 3mph /  4.8km/h 64% 0in /  0.0mm 220 W/m2
11:49 62.8 °F /  17.1 °C 50 °F /  10 °C 30.5in /  1032.5hPa SE 0.9mph /  1.4km/h 2mph /  3.2km/h 63% 0in /  0.0mm 185 W/m2
11:54 63 °F /  17.2 °C 50.2 °F /  10.1 °C 30.5in /  1032.2hPa ENE 2mph /  3.2km/h 3mph /  4.8km/h 63% 0in /  0.0mm 294 W/m2
11:59 63 °F /  17.2 °C 50.2 °F /  10.1 °C 30.5in /  1032.2hPa NW 0.9mph /  1.4km/h 8mph /  12.9km/h 63% 0in /  0.0mm 255 W/m2
12:04 63 °F /  17.2 °C 50.2 °F /  10.1 °C 30.5in /  1032.2hPa NNE 2mph /  3.2km/h 5mph /  8km/h 63% 0in /  0.0mm 285 W/m2
12:09 62.8 °F /  17.1 °C 50 °F /  10 °C 30.5in /  1032.2hPa NE 0.9mph /  1.4km/h 8mph /  12.9km/h 63% 0in /  0.0mm 265 W/m2
12:14 62.8 °F /  17.1 °C 50 °F /  10 °C 30.5in /  1032.2hPa Calm   3mph /  4.8km/h 63% 0in /  0.0mm 496 W/m2
12:19 63.1 °F /  17.3 °C 49.8 °F /  9.9 °C 30.5in /  1032.2hPa NW 2mph /  3.2km/h 5mph /  8km/h 62% 0in /  0.0mm 434 W/m2
12:24 63.1 °F /  17.3 °C 50.4 °F /  10.2 °C 30.5in /  1032.2hPa ESE 0.9mph /  1.4km/h 2mph /  3.2km/h 63% 0in /  0.0mm 403 W/m2
12:29 63.3 °F /  17.4 °C 50 °F /  10 °C 30.5in /  1031.8hPa NNW 2.9mph /  4.7km/h 4mph /  6.4km/h 62% 0in /  0.0mm 279 W/m2
12:34 63.5 °F /  17.5 °C 50.2 °F /  10.1 °C 30.5in /  1031.8hPa SSE 4mph /  6.4km/h 4mph /  6.4km/h 62% 0in /  0.0mm 445 W/m2
12:39 63.7 °F /  17.6 °C 50.4 °F /  10.2 °C 30.5in /  1031.8hPa NW 2mph /  3.2km/h 4mph /  6.4km/h 62% 0in /  0.0mm 279 W/m2
12:44 63.7 °F /  17.6 °C 50 °F /  10 °C 30.5in /  1031.8hPa ESE 0.9mph /  1.4km/h 2mph /  3.2km/h 61% 0in /  0.0mm 309 W/m2
12:49 63.9 °F /  17.7 °C 50.2 °F /  10.1 °C 30.5in /  1031.8hPa WNW 2mph /  3.2km/h 8mph /  12.9km/h 61% 0in /  0.0mm 285 W/m2
12:54 63.9 °F /  17.7 °C 50.2 °F /  10.1 °C 30.5in /  1031.8hPa NE 0.9mph /  1.4km/h 3mph /  4.8km/h 61% 0in /  0.0mm 304 W/m2
12:59 63.9 °F /  17.7 °C 50.2 °F /  10.1 °C 30.5in /  1031.8hPa NW 2mph /  3.2km/h 4mph /  6.4km/h 61% 0in /  0.0mm 408 W/m2
13:04 64 °F /  17.8 °C 50.4 °F /  10.2 °C 30.5in /  1031.8hPa WNW 2mph /  3.2km/h 4mph /  6.4km/h 61% 0in /  0.0mm 420 W/m2
13:09 64.2 °F /  17.9 °C 50 °F /  10 °C 30.5in /  1031.8hPa NE 2mph /  3.2km/h 2mph /  3.2km/h 60% 0in /  0.0mm 301 W/m2
13:14 64.2 °F /  17.9 °C 50 °F /  10 °C 30.5in /  1031.8hPa NE 2mph /  3.2km/h 2mph /  3.2km/h 60% 0in /  0.0mm 338 W/m2
13:19 64.6 °F /  18.1 °C 50.4 °F /  10.2 °C 30.5in /  1031.8hPa WSW 4mph /  6.4km/h 8mph /  12.9km/h 60% 0in /  0.0mm 234 W/m2
13:24 64.2 °F /  17.9 °C 49.6 °F /  9.8 °C 30.5in /  1031.8hPa NNW 2mph /  3.2km/h 4mph /  6.4km/h 59% 0in /  0.0mm 139 W/m2
13:29 64.2 °F /  17.9 °C 50 °F /  10 °C 30.5in /  1031.8hPa NW 2mph /  3.2km/h 8mph /  12.9km/h 60% 0in /  0.0mm 199 W/m2
13:34 64.6 °F /  18.1 °C 50.9 °F /  10.5 °C 30.5in /  1031.8hPa NNW 2mph /  3.2km/h 6mph /  9.7km/h 61% 0in /  0.0mm 155 W/m2
13:39 64.8 °F /  18.2 °C 50.2 °F /  10.1 °C 30.5in /  1031.8hPa NW 0.9mph /  1.4km/h 8mph /  12.9km/h 59% 0in /  0.0mm 165 W/m2
13:44 64.8 °F /  18.2 °C 50.5 °F /  10.3 °C 30.5in /  1031.5hPa NE 2.9mph /  4.7km/h 4mph /  6.4km/h 60% 0in /  0.0mm 199 W/m2
13:49 64.9 °F /  18.3 °C 50.2 °F /  10.1 °C 30.5in /  1031.8hPa WSW 2.9mph /  4.7km/h 10mph /  16.1km/h 59% 0in /  0.0mm 204 W/m2
13:54 64.9 °F /  18.3 °C 50.2 °F /  10.1 °C 30.5in /  1031.5hPa NW 4.9mph /  7.9km/h 6mph /  9.7km/h 59% 0in /  0.0mm 192 W/m2
13:59 64.9 °F /  18.3 °C 50.2 °F /  10.1 °C 30.5in /  1031.5hPa ENE 0.9mph /  1.4km/h 11mph /  17.7km/h 59% 0in /  0.0mm 200 W/m2
14:04 65.1 °F /  18.4 °C 50 °F /  10 °C 30.5in /  1031.5hPa West 2.9mph /  4.7km/h 4mph /  6.4km/h 58% 0in /  0.0mm 211 W/m2
14:09 65.1 °F /  18.4 °C 50.4 °F /  10.2 °C 30.5in /  1031.5hPa West 2mph /  3.2km/h 8mph /  12.9km/h 59% 0in /  0.0mm 186 W/m2
14:14 65.3 °F /  18.5 °C 50.5 °F /  10.3 °C 30.5in /  1031.2hPa Calm   3mph /  4.8km/h 59% 0in /  0.0mm 176 W/m2
14:19 65.5 °F /  18.6 °C 50.4 °F /  10.2 °C 30.5in /  1031.2hPa NNE 4mph /  6.4km/h 8mph /  12.9km/h 58% 0in /  0.0mm 213 W/m2
14:24 65.7 °F /  18.7 °C 50.5 °F /  10.3 °C 30.5in /  1031.2hPa West 2.9mph /  4.7km/h 5mph /  8km/h 58% 0in /  0.0mm 239 W/m2
14:29 65.7 °F /  18.7 °C 50.5 °F /  10.3 °C 30.5in /  1031.2hPa Calm   3mph /  4.8km/h 58% 0in /  0.0mm 211 W/m2
14:34 65.8 °F /  18.8 °C 50.7 °F /  10.4 °C 30.5in /  1031.2hPa East 2.9mph /  4.7km/h 6mph /  9.7km/h 58% 0in /  0.0mm 278 W/m2
14:39 66 °F /  18.9 °C 50.4 °F /  10.2 °C 30.5in /  1031.2hPa NW 4mph /  6.4km/h 4mph /  6.4km/h 57% 0in /  0.0mm 299 W/m2
14:44 66 °F /  18.9 °C 50.4 °F /  10.2 °C 30.5in /  1031.2hPa NNW 0.9mph /  1.4km/h 3mph /  4.8km/h 57% 0in /  0.0mm 214 W/m2
14:49 66.2 °F /  19 °C 50.5 °F /  10.3 °C 30.5in /  1031.2hPa NNE 0.9mph /  1.4km/h 6mph /  9.7km/h 57% 0in /  0.0mm 192 W/m2
14:54 66.2 °F /  19 °C 50.5 °F /  10.3 °C 30.4in /  1030.8hPa NW 2mph /  3.2km/h 5mph /  8km/h 57% 0in /  0.0mm 139 W/m2
14:59 66.2 °F /  19 °C 50.5 °F /  10.3 °C 30.4in /  1030.8hPa NE 2.9mph /  4.7km/h 4mph /  6.4km/h 57% 0in /  0.0mm 146 W/m2
15:04 66.4 °F /  19.1 °C 50.7 °F /  10.4 °C 30.4in /  1030.8hPa East 4mph /  6.4km/h 6mph /  9.7km/h 57% 0in /  0.0mm 151 W/m2
15:09 66.4 °F /  19.1 °C 50.2 °F /  10.1 °C 30.4in /  1030.8hPa North 0.9mph /  1.4km/h 2mph /  3.2km/h 56% 0in /  0.0mm 139 W/m2
15:14 66.6 °F /  19.2 °C 50.4 °F /  10.2 °C 30.4in /  1030.8hPa North 0.9mph /  1.4km/h 4mph /  6.4km/h 56% 0in /  0.0mm 123 W/m2
15:19 66.7 °F /  19.3 °C 50.5 °F /  10.3 °C 30.4in /  1030.8hPa North 4.9mph /  7.9km/h 5mph /  8km/h 56% 0in /  0.0mm 141 W/m2
15:24 66.6 °F /  19.2 °C 49.8 °F /  9.9 °C 30.4in /  1030.8hPa NE 0.9mph /  1.4km/h 5mph /  8km/h 55% 0in /  0.0mm 139 W/m2
15:29 66.7 °F /  19.3 °C 50 °F /  10 °C 30.4in /  1030.8hPa East 4mph /  6.4km/h 8mph /  12.9km/h 55% 0in /  0.0mm 118 W/m2
15:34 66.7 °F /  19.3 °C 50 °F /  10 °C 30.4in /  1030.8hPa ENE 0.9mph /  1.4km/h 4mph /  6.4km/h 55% 0in /  0.0mm 163 W/m2
15:39 66.9 °F /  19.4 °C 49.8 °F /  9.9 °C 30.4in /  1030.8hPa WNW 2mph /  3.2km/h 8mph /  12.9km/h 54% 0in /  0.0mm 109 W/m2
15:44 66.9 °F /  19.4 °C 50.2 °F /  10.1 °C 30.4in /  1030.8hPa West 4mph /  6.4km/h 7mph /  11.3km/h 55% 0in /  0.0mm 111 W/m2
15:49 66.9 °F /  19.4 °C 50.2 °F /  10.1 °C 30.4in /  1030.5hPa NW 0.9mph /  1.4km/h 2mph /  3.2km/h 55% 0in /  0.0mm 135 W/m2
15:54 66.9 °F /  19.4 °C 50.2 °F /  10.1 °C 30.4in /  1030.5hPa Calm   3mph /  4.8km/h 55% 0in /  0.0mm 144 W/m2
16:00 66.9 °F /  19.4 °C 50.2 °F /  10.1 °C 30.4in /  1030.5hPa North 2.9mph /  4.7km/h 4mph /  6.4km/h 55% 0in /  0.0mm 128 W/m2
16:05 67.1 °F /  19.5 °C 49.8 °F /  9.9 °C 30.4in /  1030.5hPa Calm   5mph /  8km/h 54% 0in /  0.0mm 135 W/m2
16:10 67.1 °F /  19.5 °C 49.8 °F /  9.9 °C 30.4in /  1030.5hPa Calm   3mph /  4.8km/h 54% 0in /  0.0mm 118 W/m2
16:15 67.1 °F /  19.5 °C 49.8 °F /  9.9 °C 30.4in /  1030.5hPa North 2mph /  3.2km/h 4mph /  6.4km/h 54% 0in /  0.0mm 141 W/m2
16:20 67.3 °F /  19.6 °C 50 °F /  10 °C 30.4in /  1030.5hPa West 6mph /  9.7km/h 6mph /  9.7km/h 54% 0in /  0.0mm 172 W/m2
16:25 67.3 °F /  19.6 °C 50 °F /  10 °C 30.4in /  1030.5hPa Calm   1mph /  1.6km/h 54% 0in /  0.0mm 156 W/m2
16:30 67.3 °F /  19.6 °C 50 °F /  10 °C 30.4in /  1030.5hPa NE 4mph /  6.4km/h 4mph /  6.4km/h 54% 0in /  0.0mm 128 W/m2
16:35 66.9 °F /  19.4 °C 50.2 °F /  10.1 °C 30.4in /  1030.5hPa ENE 2mph /  3.2km/h 4mph /  6.4km/h 55% 0in /  0.0mm 91 W/m2
16:40 66.7 °F /  19.3 °C 50.5 °F /  10.3 °C 30.4in /  1030.5hPa East 2mph /  3.2km/h 2mph /  3.2km/h 56% 0in /  0.0mm 70 W/m2
16:45 66.6 °F /  19.2 °C 50.9 °F /  10.5 °C 30.4in /  1030.1hPa ESE 6.9mph /  11.1km/h 8mph /  12.9km/h 57% 0in /  0.0mm 65 W/m2
16:50 66.2 °F /  19 °C 50.9 °F /  10.5 °C 30.4in /  1030.5hPa ENE 2.9mph /  4.7km/h 8mph /  12.9km/h 58% 0in /  0.0mm 62 W/m2
16:55 66 °F /  18.9 °C 50.9 °F /  10.5 °C 30.4in /  1030.5hPa SE 4mph /  6.4km/h 6mph /  9.7km/h 58% 0in /  0.0mm 60 W/m2
17:00 65.8 °F /  18.8 °C 50.7 °F /  10.4 °C 30.4in /  1030.5hPa East 2.9mph /  4.7km/h 5mph /  8km/h 58% 0in /  0.0mm 56 W/m2
17:05 65.7 °F /  18.7 °C 50.9 °F /  10.5 °C 30.4in /  1030.5hPa East 2mph /  3.2km/h 3mph /  4.8km/h 59% 0in /  0.0mm 53 W/m2
17:10 65.5 °F /  18.6 °C 50.7 °F /  10.4 °C 30.4in /  1030.5hPa East 0.9mph /  1.4km/h 5mph /  8km/h 59% 0in /  0.0mm 49 W/m2
17:15 65.1 °F /  18.4 °C 50.9 °F /  10.5 °C 30.4in /  1030.5hPa ENE 2mph /  3.2km/h 2mph /  3.2km/h 60% 0in /  0.0mm 46 W/m2
17:20 64.9 °F /  18.3 °C 50.7 °F /  10.4 °C 30.4in /  1030.5hPa NW 0.9mph /  1.4km/h 1mph /  1.6km/h 60% 0in /  0.0mm 42 W/m2
17:25 64.6 °F /  18.1 °C 50.9 °F /  10.5 °C 30.4in /  1030.5hPa Calm   2mph /  3.2km/h 61% 0in /  0.0mm 39 W/m2
17:30 64.2 °F /  17.9 °C 50.5 °F /  10.3 °C 30.4in /  1030.8hPa Calm   4mph /  6.4km/h 61% 0in /  0.0mm 33 W/m2
17:35 64 °F /  17.8 °C 50.4 °F /  10.2 °C 30.4in /  1030.5hPa Calm   2mph /  3.2km/h 61% 0in /  0.0mm 30 W/m2
17:40 63.9 °F /  17.7 °C 50.2 °F /  10.1 °C 30.4in /  1030.5hPa Calm   3mph /  4.8km/h 61% 0in /  0.0mm 25 W/m2
17:45 63.7 °F /  17.6 °C 50.4 °F /  10.2 °C 30.4in /  1030.5hPa Calm     62% 0in /  0.0mm 21 W/m2
17:50 63.3 °F /  17.4 °C 50.5 °F /  10.3 °C 30.4in /  1030.5hPa Calm   3mph /  4.8km/h 63% 0in /  0.0mm 16 W/m2
17:55 62.8 °F /  17.1 °C 50.4 °F /  10.2 °C 30.4in /  1030.8hPa Calm   1mph /  1.6km/h 64% 0in /  0.0mm 12 W/m2
18:00 62.1 °F /  16.7 °C 50.2 °F /  10.1 °C 30.4in /  1030.8hPa Calm     65% 0in /  0.0mm 9 W/m2
18:05 61.2 °F /  16.2 °C 49.6 °F /  9.8 °C 30.4in /  1030.8hPa Calm   1mph /  1.6km/h 66% 0in /  0.0mm 7 W/m2
18:10 60.6 °F /  15.9 °C 49.6 °F /  9.8 °C 30.5in /  1031.2hPa Calm     67% 0in /  0.0mm 5 W/m2
18:15 60.1 °F /  15.6 °C 49.5 °F /  9.7 °C 30.5in /  1031.2hPa Calm   1mph /  1.6km/h 68% 0in /  0.0mm 0 W/m2
18:20 59.4 °F /  15.2 °C 49.6 °F /  9.8 °C 30.5in /  1031.2hPa Calm   1mph /  1.6km/h 70% 0in /  0.0mm 0 W/m2
18:25 58.8 °F /  14.9 °C 49.5 °F /  9.7 °C 30.5in /  1031.2hPa Calm     71% 0in /  0.0mm 0 W/m2
18:30 58.5 °F /  14.7 °C 49.5 °F /  9.7 °C 30.5in /  1031.2hPa Calm     72% 0in /  0.0mm 0 W/m2
18:35 57.9 °F /  14.4 °C 48.9 °F /  9.4 °C 30.5in /  1031.2hPa Calm     72% 0in /  0.0mm 0 W/m2
18:40 57.6 °F /  14.2 °C 48.9 °F /  9.4 °C 30.5in /  1031.2hPa Calm   2mph /  3.2km/h 73% 0in /  0.0mm 0 W/m2
18:45 57.4 °F /  14.1 °C 49.1 °F /  9.5 °C 30.5in /  1031.2hPa Calm     74% 0in /  0.0mm 0 W/m2
18:50 57 °F /  13.9 °C 48.7 °F /  9.3 °C 30.5in /  1031.2hPa Calm   2mph /  3.2km/h 74% 0in /  0.0mm 0 W/m2
18:55 56.7 °F /  13.7 °C 48.7 °F /  9.3 °C 30.5in /  1031.5hPa Calm   1mph /  1.6km/h 75% 0in /  0.0mm 0 W/m2
19:00 56.5 °F /  13.6 °C 48.7 °F /  9.3 °C 30.5in /  1031.5hPa Calm     75% 0in /  0.0mm 0 W/m2
19:05 56.3 °F /  13.5 °C 48.9 °F /  9.4 °C 30.5in /  1031.8hPa Calm   1mph /  1.6km/h 76% 0in /  0.0mm 0 W/m2
19:10 55.9 °F /  13.3 °C 48.9 °F /  9.4 °C 30.5in /  1031.8hPa East 2mph /  3.2km/h 2mph /  3.2km/h 77% 0in /  0.0mm 0 W/m2
19:15 55.8 °F /  13.2 °C 48.7 °F /  9.3 °C 30.5in /  1031.8hPa Calm   1mph /  1.6km/h 77% 0in /  0.0mm 0 W/m2
19:20 55.6 °F /  13.1 °C 48.9 °F /  9.4 °C 30.5in /  1031.8hPa Calm   1mph /  1.6km/h 78% 0in /  0.0mm 0 W/m2
19:25 55.2 °F /  12.9 °C 48.6 °F /  9.2 °C 30.5in /  1031.8hPa Calm   1mph /  1.6km/h 78% 0in /  0.0mm 0 W/m2
19:30 55 °F /  12.8 °C 48.6 °F /  9.2 °C 30.5in /  1031.8hPa East 0.9mph /  1.4km/h 1mph /  1.6km/h 79% 0in /  0.0mm 0 W/m2
19:35 55 °F /  12.8 °C 48.6 °F /  9.2 °C 30.5in /  1031.8hPa Calm   1mph /  1.6km/h 79% 0in /  0.0mm 0 W/m2
19:40 55 °F /  12.8 °C 48.6 °F /  9.2 °C 30.5in /  1031.8hPa Calm   2mph /  3.2km/h 79% 0in /  0.0mm 0 W/m2
19:45 54.9 °F /  12.7 °C 48.6 °F /  9.2 °C 30.5in /  1031.8hPa Calm   1mph /  1.6km/h 79% 0in /  0.0mm 0 W/m2
19:50 54.9 °F /  12.7 °C 48.7 °F /  9.3 °C 30.5in /  1031.8hPa Calm   2mph /  3.2km/h 80% 0in /  0.0mm 0 W/m2
19:55 54.7 °F /  12.6 °C 48.6 °F /  9.2 °C 30.5in /  1031.8hPa South 0.9mph /  1.4km/h 2mph /  3.2km/h 80% 0in /  0.0mm 0 W/m2
20:00 54.7 °F /  12.6 °C 48.6 °F /  9.2 °C 30.5in /  1031.8hPa Calm     80% 0in /  0.0mm 0 W/m2
20:05 54.7 °F /  12.6 °C 48.6 °F /  9.2 °C 30.5in /  1031.8hPa Calm   2mph /  3.2km/h 80% 0in /  0.0mm 0 W/m2
20:10 54.7 °F /  12.6 °C 48.6 °F /  9.2 °C 30.5in /  1031.8hPa Calm   2mph /  3.2km/h 80% 0in /  0.0mm 0 W/m2
20:15 54.5 °F /  12.5 °C 48.4 °F /  9.1 °C 30.5in /  1031.8hPa Calm   2mph /  3.2km/h 80% 0in /  0.0mm 0 W/m2
20:20 54.3 °F /  12.4 °C 48.2 °F /  9 °C 30.5in /  1031.8hPa Calm   2mph /  3.2km/h 80% 0in /  0.0mm 0 W/m2
20:25 54.1 °F /  12.3 °C 48 °F /  8.9 °C 30.5in /  1031.8hPa Calm     80% 0in /  0.0mm 0 W/m2
20:30 54.1 °F /  12.3 °C 48.4 °F /  9.1 °C 30.5in /  1031.8hPa WNW 0.9mph /  1.4km/h 1mph /  1.6km/h 81% 0in /  0.0mm 0 W/m2
20:35 54.1 °F /  12.3 °C 48.4 °F /  9.1 °C 30.5in /  1031.8hPa WNW 2mph /  3.2km/h 3mph /  4.8km/h 81% 0in /  0.0mm 0 W/m2
20:40 54 °F /  12.2 °C 48.2 °F /  9 °C 30.5in /  1031.8hPa Calm   1mph /  1.6km/h 81% 0in /  0.0mm 0 W/m2
20:45 53.8 °F /  12.1 °C 48 °F /  8.9 °C 30.5in /  1031.8hPa Calm   3mph /  4.8km/h 81% 0in /  0.0mm 0 W/m2
20:50 53.6 °F /  12 °C 47.8 °F /  8.8 °C 30.5in /  1031.8hPa Calm   1mph /  1.6km/h 81% 0in /  0.0mm 0 W/m2
20:55 53.4 °F /  11.9 °C 48 °F /  8.9 °C 30.5in /  1031.8hPa Calm   1mph /  1.6km/h 82% 0in /  0.0mm 0 W/m2
21:00 53.4 °F /  11.9 °C 48 °F /  8.9 °C 30.5in /  1031.8hPa Calm     82% 0in /  0.0mm 0 W/m2
21:05 53.2 °F /  11.8 °C 47.8 °F /  8.8 °C 30.5in /  1031.8hPa Calm   2mph /  3.2km/h 82% 0in /  0.0mm 0 W/m2
21:10 53.1 °F /  11.7 °C 47.7 °F /  8.7 °C 30.5in /  1031.8hPa Calm     82% 0in /  0.0mm 0 W/m2
21:15 53.1 °F /  11.7 °C 48 °F /  8.9 °C 30.5in /  1031.8hPa Calm   2mph /  3.2km/h 83% 0in /  0.0mm 0 W/m2
21:20 52.9 °F /  11.6 °C 47.8 °F /  8.8 °C 30.5in /  1031.8hPa Calm     83% 0in /  0.0mm 0 W/m2
21:25 52.7 °F /  11.5 °C 47.7 °F /  8.7 °C 30.5in /  1031.8hPa Calm     83% 0in /  0.0mm 0 W/m2
21:30 52.5 °F /  11.4 °C 47.5 °F /  8.6 °C 30.5in /  1031.8hPa Calm     83% 0in /  0.0mm 0 W/m2
21:35 52.3 °F /  11.3 °C 47.7 °F /  8.7 °C 30.5in /  1031.8hPa Calm   2mph /  3.2km/h 84% 0in /  0.0mm 0 W/m2
21:40 52.3 °F /  11.3 °C 47.7 °F /  8.7 °C 30.5in /  1031.8hPa Calm   1mph /  1.6km/h 84% 0in /  0.0mm 0 W/m2
21:45 52.2 °F /  11.2 °C 47.5 °F /  8.6 °C 30.5in /  1031.8hPa Calm   1mph /  1.6km/h 84% 0in /  0.0mm 0 W/m2
21:50 52.2 °F /  11.2 °C 47.5 °F /  8.6 °C 30.5in /  1031.8hPa Calm   1mph /  1.6km/h 84% 0in /  0.0mm 0 W/m2
21:55 52 °F /  11.1 °C 47.7 °F /  8.7 °C 30.5in /  1031.8hPa WSW 0.9mph /  1.4km/h 1mph /  1.6km/h 85% 0in /  0.0mm 0 W/m2
22:00 51.8 °F /  11 °C 47.5 °F /  8.6 °C 30.5in /  1032.2hPa Calm   2mph /  3.2km/h 85% 0in /  0.0mm 0 W/m2
22:05 51.8 °F /  11 °C 47.5 °F /  8.6 °C 30.5in /  1032.2hPa WSW 0.9mph /  1.4km/h 2mph /  3.2km/h 85% 0in /  0.0mm 0 W/m2
22:10 51.8 °F /  11 °C 47.5 °F /  8.6 °C 30.5in /  1032.2hPa Calm   1mph /  1.6km/h 85% 0in /  0.0mm 0 W/m2
22:15 51.8 °F /  11 °C 47.5 °F /  8.6 °C 30.5in /  1032.2hPa WSW 2mph /  3.2km/h 2mph /  3.2km/h 85% 0in /  0.0mm 0 W/m2
22:20 51.6 °F /  10.9 °C 47.3 °F /  8.5 °C 30.5in /  1032.2hPa Calm     85% 0in /  0.0mm 0 W/m2
22:25 51.4 °F /  10.8 °C 47.1 °F /  8.4 °C 30.5in /  1032.2hPa Calm     85% 0in /  0.0mm 0 W/m2
22:30 51.3 °F /  10.7 °C 47.3 °F /  8.5 °C 30.5in /  1032.2hPa Calm     86% 0in /  0.0mm 0 W/m2
22:35 51.3 °F /  10.7 °C 47.3 °F /  8.5 °C 30.5in /  1032.2hPa Calm     86% 0in /  0.0mm 0 W/m2
22:40 51.1 °F /  10.6 °C 47.1 °F /  8.4 °C 30.5in /  1032.2hPa Calm     86% 0in /  0.0mm 0 W/m2
22:45 50.9 °F /  10.5 °C 46.9 °F /  8.3 °C 30.5in /  1032.2hPa Calm     86% 0in /  0.0mm 0 W/m2
22:50 50.7 °F /  10.4 °C 46.8 °F /  8.2 °C 30.5in /  1032.2hPa Calm     86% 0in /  0.0mm 0 W/m2
22:55 50.7 °F /  10.4 °C 46.8 °F /  8.2 °C 30.5in /  1032.2hPa Calm     86% 0in /  0.0mm 0 W/m2
23:00 50.5 °F /  10.3 °C 46.8 °F /  8.2 °C 30.5in /  1032.2hPa Calm     87% 0in /  0.0mm 0 W/m2
23:05 50.4 °F /  10.2 °C 46.6 °F /  8.1 °C 30.5in /  1032.2hPa Calm     87% 0in /  0.0mm 0 W/m2
23:10 50.2 °F /  10.1 °C 46.4 °F /  8 °C 30.5in /  1032.2hPa Calm     87% 0in /  0.0mm 0 W/m2
23:15 50 °F /  10 °C 46.6 °F /  8.1 °C 30.5in /  1032.2hPa Calm     88% 0in /  0.0mm 0 W/m2
23:21 49.8 °F /  9.9 °C 46.4 °F /  8 °C 30.5in /  1032.2hPa Calm     88% 0in /  0.0mm 0 W/m2
23:26 49.8 °F /  9.9 °C 46.4 °F /  8 °C 30.5in /  1031.8hPa Calm     88% 0in /  0.0mm 0 W/m2
23:31 49.6 °F /  9.8 °C 46.2 °F /  7.9 °C 30.5in /  1032.2hPa Calm     88% 0in /  0.0mm 0 W/m2
23:36 49.6 °F /  9.8 °C 46.6 °F /  8.1 °C 30.5in /  1032.2hPa Calm     89% 0in /  0.0mm 0 W/m2
23:41 49.6 °F /  9.8 °C 46.6 °F /  8.1 °C 30.5in /  1032.2hPa Calm   1mph /  1.6km/h 89% 0in /  0.0mm 0 W/m2
23:46 49.6 °F /  9.8 °C 46.6 °F /  8.1 °C 30.5in /  1032.2hPa Calm     89% 0in /  0.0mm 0 W/m2
23:51 49.6 °F /  9.8 °C 46.6 °F /  8.1 °C 30.5in /  1032.2hPa Calm     89% 0in /  0.0mm 0 W/m2
23:56 49.6 °F /  9.8 °C 46.8 °F /  8.2 °C 30.5in /  1032.2hPa Calm     90% 0in /  0.0mm 0 W/m2
Juneau County Weather
Compliments of Weather Underground - 4 mb